Weather at Plainfield International Airport

Public forecast

Using degrees Fahrenheit for public forecast. Weather courtesy of forecast.io.

Closest aviation weather report (METAR) to Plainfield International Airport

Closest report is Wautoma Municipal Airport, 13.6 nm (25.2 km) SE. Retrieved 2021/06/13 09:56 UTC (14 minutes ago):

KY50 130956Z AUTO 00000KT 10SM CLR 13/11 A3001 RMK AO2 SLP156 T01330106

Closest aviation forecast (TAF) to Plainfield International Airport

Closest forecast is Central Wisconsin Airport, 34.1 nm (63.2 km) NNW. Retrieved 2021/06/13 06:22 UTC (4 hours ago):

TAF KCWA 130520Z 1306/1406 30003KT P6SM SKC FM131600 29007G15KT P6SM SCT070 FM132200 25007KT P6SM SCT090 FM140100 02008KT P6SM SCT035 BKN070 PROB30 1401/1403 3SM TSRA OVC035CB FM140300 03005KT P6SM SCT070